Woodbury, New Jersey
Current Conditions -  °F | °C
As of 3:54 AM on Wednesday 28 Jan 2015 (Local Time) from KPHL Reporting Station
Few Clouds Few Clouds  
Wind Chill:   Ceiling: Unl
Heat Index: 20°   Visibility: 10mi
Dew Point:   Wind: 9mph
Humidity: 50%   Direction: 320°NW
Pressure: 30"   Gusts: NA
Location:  39.84°N, 75.15°W
Report Text: KPHL 280854Z 32008KT 10SM FEW280 M07/M16 A3000 RMK AO2 SLP159 T10671156 51022 $
Loading
Personal Weather Stations






























Interactive Weather Map New forecast layout! Learn more

10-Day Weather Forecast

Advertisements
Track Severe Weather on mobile